KBIX/BIX METAR and TAF weather

Enter ICAO airport designator
Station Type Date Time Source
KBIX METAR 2022/12/05 14:55 UTC NOAA

KBIX 051455Z AUTO 28004KT 10SM OVC003 18/17 A3008 RMK AO2 SLP189 T01770172 52009


Station Type Date Time Source
KBIX Decoded METAR 2022/12/05 14:55 UTC NOAA

Keesler Air Force Base / Biloxi, MS, United States (KBIX) 30-25N 088-55W
Dec 05, 2022 - 09:55 AM EST / 2022.12.05 1455 UTC
Wind: from the W (280 degrees) at 5 MPH (4 KT):0
Visibility: 10 mile(s):0
Sky conditions: overcast
Temperature: 63.9 F (17.7 C)
Dew Point: 63.0 F (17.2 C)
Relative Humidity: 96%
Pressure (altimeter): 30.08 in. Hg (1018 hPa)
Pressure tendency: 0.03 inches (0.9 hPa) higher than three hours ago
ob: KBIX 051455Z AUTO 28004KT 10SM OVC003 18/17 A3008 RMK AO2 SLP189 T01770172 52009
cycle: 15

Station Type Date Time Source
KBIX TAF 2022/12/05 11:06 UTC NOAA

TAF TAF KBIX 051100Z 0511/0617 VRB06KT 0800 FG VV001 QNH3004INS
TEMPO 0511/0515 1600 BR OVC005
BECMG 0515/0516 17008KT 9999 NSW SCT005 BKN015 QNH3007INS
BECMG 0523/0524 VRB06KT 4800 BR BKN010 OVC020 QNH3003INS
TEMPO 0600/0612 1600 BR
BECMG 0612/0613 18009KT 9999 NSW SCT005 BKN025 QNH3009INS TX22/0519Z TN15/0512Z

Example: see airport list